sensor_id;sensor_type;location;lat;lon;timestamp;P1;durP1;ratioP1;P2;durP2;ratioP2
67528;SDS011;54366;51.980;5.856;2023-05-10T00:01:15;18.63;;;16.73;;
67528;SDS011;54366;51.980;5.856;2023-05-10T00:03:48;18.55;;;16.65;;
67528;SDS011;54366;51.980;5.856;2023-05-10T00:06:14;20.67;;;18.48;;
67528;SDS011;54366;51.980;5.856;2023-05-10T00:08:47;20.63;;;18.42;;
67528;SDS011;54366;51.980;5.856;2023-05-10T00:11:20;19.55;;;16.95;;
67528;SDS011;54366;51.980;5.856;2023-05-10T00:13:53;20.52;;;18.33;;
67528;SDS011;54366;51.980;5.856;2023-05-10T00:16:26;20.23;;;18.13;;
67528;SDS011;54366;51.980;5.856;2023-05-10T00:18:52;22.63;;;20.20;;
67528;SDS011;54366;51.980;5.856;2023-05-10T00:21:25;23.42;;;20.67;;
67528;SDS011;54366;51.980;5.856;2023-05-10T00:23:53;24.15;;;20.70;;
67528;SDS011;54366;51.980;5.856;2023-05-10T00:26:27;23.33;;;20.77;;
67528;SDS011;54366;51.980;5.856;2023-05-10T00:29:00;26.52;;;22.65;;
67528;SDS011;54366;51.980;5.856;2023-05-10T00:31:33;25.40;;;22.10;;
67528;SDS011;54366;51.980;5.856;2023-05-10T00:34:06;24.20;;;21.60;;
67528;SDS011;54366;51.980;5.856;2023-05-10T00:36:39;25.15;;;22.55;;
67528;SDS011;54366;51.980;5.856;2023-05-10T00:39:12;27.27;;;24.38;;
67528;SDS011;54366;51.980;5.856;2023-05-10T00:41:52;26.42;;;23.63;;
67528;SDS011;54366;51.980;5.856;2023-05-10T00:44:18;26.27;;;23.42;;
67528;SDS011;54366;51.980;5.856;2023-05-10T00:46:51;27.25;;;24.35;;
67528;SDS011;54366;51.980;5.856;2023-05-10T00:49:18;26.83;;;24.02;;
67528;SDS011;54366;51.980;5.856;2023-05-10T00:51:52;30.17;;;25.75;;
67528;SDS011;54366;51.980;5.856;2023-05-10T00:54:25;27.40;;;24.35;;
67528;SDS011;54366;51.980;5.856;2023-05-10T00:56:58;29.63;;;26.45;;
67528;SDS011;54366;51.980;5.856;2023-05-10T00:59:25;28.23;;;25.15;;
67528;SDS011;54366;51.980;5.856;2023-05-10T01:01:58;29.27;;;26.17;;
67528;SDS011;54366;51.980;5.856;2023-05-10T01:04:31;30.20;;;26.40;;
67528;SDS011;54366;51.980;5.856;2023-05-10T01:07:04;28.85;;;25.77;;
67528;SDS011;54366;51.980;5.856;2023-05-10T01:09:37;27.60;;;24.70;;
67528;SDS011;54366;51.980;5.856;2023-05-10T01:12:04;31.38;;;27.85;;
67528;SDS011;54366;51.980;5.856;2023-05-10T01:14:39;30.60;;;27.23;;
67528;SDS011;54366;51.980;5.856;2023-05-10T01:17:12;31.88;;;27.95;;
67528;SDS011;54366;51.980;5.856;2023-05-10T01:19:45;30.65;;;27.15;;
67528;SDS011;54366;51.980;5.856;2023-05-10T01:22:42;30.60;;;27.30;;
67528;SDS011;54366;51.980;5.856;2023-05-10T01:26:01;32.42;;;27.58;;
67528;SDS011;54366;51.980;5.856;2023-05-10T01:29:11;30.85;;;26.88;;
67528;SDS011;54366;51.980;5.856;2023-05-10T01:35:10;33.40;;;28.38;;
67528;SDS011;54366;51.980;5.856;2023-05-10T01:38:18;32.03;;;26.58;;
67528;SDS011;54366;51.980;5.856;2023-05-10T01:41:08;25.00;;;21.73;;
67528;SDS011;54366;51.980;5.856;2023-05-10T01:43:53;25.75;;;22.25;;
67528;SDS011;54366;51.980;5.856;2023-05-10T01:46:32;25.70;;;22.63;;
67528;SDS011;54366;51.980;5.856;2023-05-10T01:49:11;24.92;;;21.67;;
67528;SDS011;54366;51.980;5.856;2023-05-10T01:51:52;26.77;;;21.52;;
67528;SDS011;54366;51.980;5.856;2023-05-10T01:54:29;31.02;;;25.00;;
67528;SDS011;54366;51.980;5.856;2023-05-10T01:57:06;27.02;;;23.10;;
67528;SDS011;54366;51.980;5.856;2023-05-10T01:59:43;30.27;;;24.10;;
67528;SDS011;54366;51.980;5.856;2023-05-10T02:02:22;29.60;;;24.35;;
67528;SDS011;54366;51.980;5.856;2023-05-10T02:04:57;26.77;;;22.17;;
67528;SDS011;54366;51.980;5.856;2023-05-10T02:07:31;28.13;;;22.73;;
67528;SDS011;54366;51.980;5.856;2023-05-10T02:10:07;26.05;;;22.33;;
67528;SDS011;54366;51.980;5.856;2023-05-10T02:12:43;27.08;;;22.38;;
67528;SDS011;54366;51.980;5.856;2023-05-10T02:15:19;31.05;;;24.02;;
67528;SDS011;54366;51.980;5.856;2023-05-10T02:17:55;30.42;;;24.45;;
67528;SDS011;54366;51.980;5.856;2023-05-10T02:20:24;26.77;;;22.48;;
67528;SDS011;54366;51.980;5.856;2023-05-10T02:22:57;27.17;;;22.08;;
67528;SDS011;54366;51.980;5.856;2023-05-10T02:25:24;30.13;;;23.83;;
67528;SDS011;54366;51.980;5.856;2023-05-10T02:27:58;27.05;;;21.38;;
67528;SDS011;54366;51.980;5.856;2023-05-10T02:30:35;30.10;;;24.23;;
67528;SDS011;54366;51.980;5.856;2023-05-10T02:33:10;34.03;;;25.60;;
67528;SDS011;54366;51.980;5.856;2023-05-10T02:35:37;27.80;;;21.58;;
67528;SDS011;54366;51.980;5.856;2023-05-10T02:38:18;28.42;;;22.27;;
67528;SDS011;54366;51.980;5.856;2023-05-10T02:41:00;27.00;;;21.98;;
67528;SDS011;54366;51.980;5.856;2023-05-10T02:43:36;30.90;;;24.35;;
67528;SDS011;54366;51.980;5.856;2023-05-10T02:46:11;37.15;;;28.42;;
67528;SDS011;54366;51.980;5.856;2023-05-10T02:48:37;35.20;;;26.45;;
67528;SDS011;54366;51.980;5.856;2023-05-10T02:51:10;32.13;;;25.05;;
67528;SDS011;54366;51.980;5.856;2023-05-10T02:53:46;34.55;;;26.38;;
67528;SDS011;54366;51.980;5.856;2023-05-10T02:56:34;35.05;;;27.05;;
67528;SDS011;54366;51.980;5.856;2023-05-10T02:59:11;31.38;;;25.30;;
67528;SDS011;54366;51.980;5.856;2023-05-10T03:01:44;32.28;;;26.05;;
67528;SDS011;54366;51.980;5.856;2023-05-10T03:04:11;37.63;;;27.30;;
67528;SDS011;54366;51.980;5.856;2023-05-10T03:06:45;36.40;;;28.13;;
67528;SDS011;54366;51.980;5.856;2023-05-10T03:09:12;36.25;;;28.42;;
67528;SDS011;54366;51.980;5.856;2023-05-10T03:12:00;34.53;;;27.58;;
67528;SDS011;54366;51.980;5.856;2023-05-10T03:15:13;35.55;;;26.92;;
67528;SDS011;54366;51.980;5.856;2023-05-10T03:17:55;39.30;;;28.55;;
67528;SDS011;54366;51.980;5.856;2023-05-10T03:20:46;37.75;;;28.80;;
67528;SDS011;54366;51.980;5.856;2023-05-10T03:23:30;33.70;;;27.45;;
67528;SDS011;54366;51.980;5.856;2023-05-10T03:26:15;34.25;;;26.60;;
67528;SDS011;54366;51.980;5.856;2023-05-10T03:28:59;32.72;;;25.73;;
67528;SDS011;54366;51.980;5.856;2023-05-10T03:31:33;35.58;;;28.38;;
67528;SDS011;54366;51.980;5.856;2023-05-10T03:34:06;34.88;;;27.10;;
67528;SDS011;54366;51.980;5.856;2023-05-10T03:36:33;33.17;;;26.35;;
67528;SDS011;54366;51.980;5.856;2023-05-10T03:39:11;36.17;;;29.30;;
67528;SDS011;54366;51.980;5.856;2023-05-10T03:41:50;39.42;;;30.90;;
67528;SDS011;54366;51.980;5.856;2023-05-10T03:44:23;35.95;;;28.15;;
67528;SDS011;54366;51.980;5.856;2023-05-10T03:46:56;38.72;;;31.23;;
67528;SDS011;54366;51.980;5.856;2023-05-10T03:49:23;32.97;;;27.05;;
67528;SDS011;54366;51.980;5.856;2023-05-10T03:51:56;30.42;;;25.52;;
67528;SDS011;54366;51.980;5.856;2023-05-10T03:54:22;36.65;;;28.02;;
67528;SDS011;54366;51.980;5.856;2023-05-10T03:56:55;35.22;;;28.00;;
67528;SDS011;54366;51.980;5.856;2023-05-10T03:59:29;33.05;;;25.92;;
67528;SDS011;54366;51.980;5.856;2023-05-10T04:02:02;35.75;;;29.00;;
67528;SDS011;54366;51.980;5.856;2023-05-10T04:04:35;34.60;;;27.63;;
67528;SDS011;54366;51.980;5.856;2023-05-10T04:07:02;30.92;;;24.85;;
67528;SDS011;54366;51.980;5.856;2023-05-10T04:09:35;33.42;;;26.88;;
67528;SDS011;54366;51.980;5.856;2023-05-10T04:12:08;31.13;;;25.35;;
67528;SDS011;54366;51.980;5.856;2023-05-10T04:14:41;33.78;;;26.25;;
67528;SDS011;54366;51.980;5.856;2023-05-10T04:17:07;33.50;;;26.77;;
67528;SDS011;54366;51.980;5.856;2023-05-10T04:19:40;34.85;;;27.23;;
67528;SDS011;54366;51.980;5.856;2023-05-10T04:22:13;30.33;;;25.70;;
67528;SDS011;54366;51.980;5.856;2023-05-10T04:24:46;31.20;;;26.08;;
67528;SDS011;54366;51.980;5.856;2023-05-10T04:27:12;27.90;;;22.30;;
67528;SDS011;54366;51.980;5.856;2023-05-10T04:29:45;28.23;;;22.95;;
67528;SDS011;54366;51.980;5.856;2023-05-10T04:32:18;29.83;;;23.80;;
67528;SDS011;54366;51.980;5.856;2023-05-10T04:34:52;30.50;;;23.95;;
67528;SDS011;54366;51.980;5.856;2023-05-10T04:37:25;30.25;;;23.77;;
67528;SDS011;54366;51.980;5.856;2023-05-10T04:39:58;33.78;;;26.30;;
67528;SDS011;54366;51.980;5.856;2023-05-10T04:42:39;27.98;;;22.30;;
67528;SDS011;54366;51.980;5.856;2023-05-10T04:45:13;31.63;;;24.92;;
67528;SDS011;54366;51.980;5.856;2023-05-10T04:47:42;33.72;;;26.25;;
67528;SDS011;54366;51.980;5.856;2023-05-10T04:50:15;30.67;;;24.00;;
67528;SDS011;54366;51.980;5.856;2023-05-10T04:52:48;32.20;;;24.38;;
67528;SDS011;54366;51.980;5.856;2023-05-10T04:55:21;32.42;;;24.10;;
67528;SDS011;54366;51.980;5.856;2023-05-10T04:57:47;33.15;;;25.15;;
67528;SDS011;54366;51.980;5.856;2023-05-10T05:00:20;31.33;;;23.98;;
67528;SDS011;54366;51.980;5.856;2023-05-10T05:02:53;33.60;;;25.10;;
67528;SDS011;54366;51.980;5.856;2023-05-10T05:05:26;35.22;;;26.40;;
67528;SDS011;54366;51.980;5.856;2023-05-10T05:07:59;35.58;;;26.67;;
67528;SDS011;54366;51.980;5.856;2023-05-10T05:10:26;32.20;;;25.55;;
67528;SDS011;54366;51.980;5.856;2023-05-10T05:12:59;31.80;;;23.80;;
67528;SDS011;54366;51.980;5.856;2023-05-10T05:15:32;29.38;;;23.15;;
67528;SDS011;54366;51.980;5.856;2023-05-10T05:18:05;30.63;;;23.42;;
67528;SDS011;54366;51.980;5.856;2023-05-10T05:20:38;29.90;;;22.75;;
67528;SDS011;54366;51.980;5.856;2023-05-10T05:23:11;28.70;;;21.80;;
67528;SDS011;54366;51.980;5.856;2023-05-10T05:25:44;25.08;;;20.25;;
67528;SDS011;54366;51.980;5.856;2023-05-10T05:28:17;28.63;;;21.73;;
67528;SDS011;54366;51.980;5.856;2023-05-10T05:30:50;26.92;;;21.23;;
67528;SDS011;54366;51.980;5.856;2023-05-10T05:33:23;30.90;;;24.35;;
67528;SDS011;54366;51.980;5.856;2023-05-10T05:35:49;28.75;;;22.38;;
67528;SDS011;54366;51.980;5.856;2023-05-10T05:38:22;28.55;;;22.38;;
67528;SDS011;54366;51.980;5.856;2023-05-10T05:41:01;29.10;;;22.88;;
67528;SDS011;54366;51.980;5.856;2023-05-10T05:43:37;32.25;;;24.27;;
67528;SDS011;54366;51.980;5.856;2023-05-10T05:46:10;26.73;;;21.50;;
67528;SDS011;54366;51.980;5.856;2023-05-10T05:48:43;32.38;;;24.10;;
67528;SDS011;54366;51.980;5.856;2023-05-10T05:51:09;33.45;;;25.00;;
67528;SDS011;54366;51.980;5.856;2023-05-10T05:53:42;37.40;;;27.20;;
67528;SDS011;54366;51.980;5.856;2023-05-10T05:56:15;33.38;;;24.85;;
67528;SDS011;54366;51.980;5.856;2023-05-10T05:58:52;38.42;;;27.33;;
67528;SDS011;54366;51.980;5.856;2023-05-10T06:01:18;45.65;;;32.38;;
67528;SDS011;54366;51.980;5.856;2023-05-10T06:03:51;38.85;;;27.27;;
67528;SDS011;54366;51.980;5.856;2023-05-10T06:06:24;41.65;;;29.27;;
67528;SDS011;54366;51.980;5.856;2023-05-10T06:09:00;46.13;;;31.27;;
67528;SDS011;54366;51.980;5.856;2023-05-10T06:11:36;48.80;;;33.45;;
67528;SDS011;54366;51.980;5.856;2023-05-10T06:14:03;44.42;;;31.05;;
67528;SDS011;54366;51.980;5.856;2023-05-10T06:16:39;38.42;;;27.33;;
67528;SDS011;54366;51.980;5.856;2023-05-10T06:19:12;44.45;;;30.67;;
67528;SDS011;54366;51.980;5.856;2023-05-10T06:21:45;41.22;;;29.35;;
67528;SDS011;54366;51.980;5.856;2023-05-10T06:24:11;45.67;;;31.40;;
67528;SDS011;54366;51.980;5.856;2023-05-10T06:26:44;37.92;;;27.40;;
67528;SDS011;54366;51.980;5.856;2023-05-10T06:29:17;36.25;;;25.95;;
67528;SDS011;54366;51.980;5.856;2023-05-10T06:31:50;39.97;;;27.25;;
67528;SDS011;54366;51.980;5.856;2023-05-10T06:34:23;57.40;;;31.38;;
67528;SDS011;54366;51.980;5.856;2023-05-10T06:36:49;47.75;;;30.85;;
67528;SDS011;54366;51.980;5.856;2023-05-10T06:39:22;44.85;;;30.85;;
67528;SDS011;54366;51.980;5.856;2023-05-10T06:42:02;47.63;;;30.27;;
67528;SDS011;54366;51.980;5.856;2023-05-10T06:44:36;41.95;;;28.83;;
67528;SDS011;54366;51.980;5.856;2023-05-10T06:47:09;47.22;;;32.80;;
67528;SDS011;54366;51.980;5.856;2023-05-10T06:49:42;40.53;;;28.15;;
67528;SDS011;54366;51.980;5.856;2023-05-10T06:52:08;44.75;;;30.98;;
67528;SDS011;54366;51.980;5.856;2023-05-10T06:54:41;36.25;;;26.38;;
67528;SDS011;54366;51.980;5.856;2023-05-10T06:57:14;34.53;;;24.58;;
67528;SDS011;54366;51.980;5.856;2023-05-10T06:59:47;32.30;;;24.73;;
67528;SDS011;54366;51.980;5.856;2023-05-10T07:02:13;33.35;;;24.17;;
67528;SDS011;54366;51.980;5.856;2023-05-10T07:04:47;29.27;;;22.80;;
67528;SDS011;54366;51.980;5.856;2023-05-10T07:07:20;38.95;;;27.77;;
67528;SDS011;54366;51.980;5.856;2023-05-10T07:09:46;35.38;;;26.75;;
67528;SDS011;54366;51.980;5.856;2023-05-10T07:12:19;39.70;;;27.85;;
67528;SDS011;54366;51.980;5.856;2023-05-10T07:14:52;37.28;;;27.25;;
67528;SDS011;54366;51.980;5.856;2023-05-10T07:17:18;35.13;;;25.95;;
67528;SDS011;54366;51.980;5.856;2023-05-10T07:19:51;36.38;;;28.10;;
67528;SDS011;54366;51.980;5.856;2023-05-10T07:22:24;43.08;;;29.88;;
67528;SDS011;54366;51.980;5.856;2023-05-10T07:24:50;40.78;;;29.92;;
67528;SDS011;54366;51.980;5.856;2023-05-10T07:27:23;42.13;;;29.58;;
67528;SDS011;54366;51.980;5.856;2023-05-10T07:29:56;45.97;;;32.20;;
67528;SDS011;54366;51.980;5.856;2023-05-10T07:32:29;44.33;;;30.17;;
67528;SDS011;54366;51.980;5.856;2023-05-10T07:35:02;41.63;;;29.38;;
67528;SDS011;54366;51.980;5.856;2023-05-10T07:37:35;46.45;;;29.92;;
67528;SDS011;54366;51.980;5.856;2023-05-10T07:40:14;34.40;;;24.50;;
67528;SDS011;54366;51.980;5.856;2023-05-10T07:42:54;48.42;;;32.55;;
67528;SDS011;54366;51.980;5.856;2023-05-10T07:45:27;37.63;;;26.40;;
67528;SDS011;54366;51.980;5.856;2023-05-10T07:47:54;32.38;;;23.20;;
67528;SDS011;54366;51.980;5.856;2023-05-10T07:50:27;35.03;;;23.67;;
67528;SDS011;54366;51.980;5.856;2023-05-10T07:53:00;29.52;;;21.38;;
67528;SDS011;54366;51.980;5.856;2023-05-10T07:55:33;31.92;;;22.15;;
67528;SDS011;54366;51.980;5.856;2023-05-10T07:57:59;33.78;;;23.65;;
67528;SDS011;54366;51.980;5.856;2023-05-10T08:00:33;34.47;;;22.45;;
67528;SDS011;54366;51.980;5.856;2023-05-10T08:03:06;36.25;;;24.65;;
67528;SDS011;54366;51.980;5.856;2023-05-10T08:05:32;33.58;;;23.48;;
67528;SDS011;54366;51.980;5.856;2023-05-10T08:08:06;31.50;;;22.15;;
67528;SDS011;54366;51.980;5.856;2023-05-10T08:10:39;32.30;;;23.05;;
67528;SDS011;54366;51.980;5.856;2023-05-10T08:13:05;35.90;;;24.63;;
67528;SDS011;54366;51.980;5.856;2023-05-10T08:15:38;31.90;;;23.50;;
67528;SDS011;54366;51.980;5.856;2023-05-10T08:18:11;30.58;;;22.42;;
67528;SDS011;54366;51.980;5.856;2023-05-10T08:20:44;37.05;;;27.25;;
67528;SDS011;54366;51.980;5.856;2023-05-10T08:23:17;36.30;;;24.20;;
67528;SDS011;54366;51.980;5.856;2023-05-10T08:25:50;36.75;;;25.40;;
67528;SDS011;54366;51.980;5.856;2023-05-10T08:28:23;38.33;;;27.55;;
67528;SDS011;54366;51.980;5.856;2023-05-10T08:30:56;43.88;;;31.17;;
67528;SDS011;54366;51.980;5.856;2023-05-10T08:33:29;34.90;;;26.00;;
67528;SDS011;54366;51.980;5.856;2023-05-10T08:36:02;33.42;;;23.70;;
67528;SDS011;54366;51.980;5.856;2023-05-10T08:38:41;29.73;;;21.65;;
67528;SDS011;54366;51.980;5.856;2023-05-10T08:41:27;32.22;;;23.63;;
67528;SDS011;54366;51.980;5.856;2023-05-10T08:44:02;29.10;;;19.33;;
67528;SDS011;54366;51.980;5.856;2023-05-10T08:46:37;37.53;;;20.58;;
67528;SDS011;54366;51.980;5.856;2023-05-10T08:49:17;23.45;;;17.27;;
67528;SDS011;54366;51.980;5.856;2023-05-10T08:51:47;20.95;;;16.40;;
67528;SDS011;54366;51.980;5.856;2023-05-10T08:54:23;17.45;;;14.02;;
67528;SDS011;54366;51.980;5.856;2023-05-10T08:56:56;16.25;;;13.40;;
67528;SDS011;54366;51.980;5.856;2023-05-10T08:59:29;17.77;;;13.77;;
67528;SDS011;54366;51.980;5.856;2023-05-10T09:02:02;17.52;;;13.25;;
67528;SDS011;54366;51.980;5.856;2023-05-10T09:04:36;17.80;;;13.63;;
67528;SDS011;54366;51.980;5.856;2023-05-10T09:07:02;16.27;;;12.80;;
67528;SDS011;54366;51.980;5.856;2023-05-10T09:09:35;25.85;;;14.65;;
67528;SDS011;54366;51.980;5.856;2023-05-10T09:12:09;13.20;;;11.27;;
67528;SDS011;54366;51.980;5.856;2023-05-10T09:14:43;13.93;;;10.45;;
67528;SDS011;54366;51.980;5.856;2023-05-10T09:17:17;11.02;;;9.00;;
67528;SDS011;54366;51.980;5.856;2023-05-10T09:19:44;17.98;;;9.40;;
67528;SDS011;54366;51.980;5.856;2023-05-10T09:22:17;14.15;;;9.18;;
67528;SDS011;54366;51.980;5.856;2023-05-10T09:25:03;13.00;;;10.90;;
67528;SDS011;54366;51.980;5.856;2023-05-10T09:27:47;11.70;;;10.15;;
67528;SDS011;54366;51.980;5.856;2023-05-10T09:30:24;12.38;;;9.57;;
67528;SDS011;54366;51.980;5.856;2023-05-10T09:32:58;12.02;;;8.30;;
67528;SDS011;54366;51.980;5.856;2023-05-10T09:35:32;13.55;;;9.70;;
67528;SDS011;54366;51.980;5.856;2023-05-10T09:38:05;9.90;;;8.70;;
67528;SDS011;54366;51.980;5.856;2023-05-10T09:40:38;9.60;;;8.05;;
67528;SDS011;54366;51.980;5.856;2023-05-10T09:43:18;21.50;;;10.80;;
67528;SDS011;54366;51.980;5.856;2023-05-10T09:45:52;8.85;;;7.00;;
67528;SDS011;54366;51.980;5.856;2023-05-10T09:48:25;8.50;;;6.65;;
67528;SDS011;54366;51.980;5.856;2023-05-10T09:50:58;8.95;;;7.30;;
67528;SDS011;54366;51.980;5.856;2023-05-10T09:53:31;8.68;;;7.22;;
67528;SDS011;54366;51.980;5.856;2023-05-10T09:56:04;8.32;;;6.65;;
67528;SDS011;54366;51.980;5.856;2023-05-10T09:58:37;8.75;;;7.13;;
67528;SDS011;54366;51.980;5.856;2023-05-10T10:01:05;6.97;;;6.28;;
67528;SDS011;54366;51.980;5.856;2023-05-10T10:03:44;12.98;;;6.65;;
67528;SDS011;54366;51.980;5.856;2023-05-10T10:06:20;6.90;;;6.20;;
67528;SDS011;54366;51.980;5.856;2023-05-10T10:08:53;7.00;;;6.30;;
67528;SDS011;54366;51.980;5.856;2023-05-10T10:11:27;8.75;;;7.57;;
67528;SDS011;54366;51.980;5.856;2023-05-10T10:13:54;10.30;;;8.63;;
67528;SDS011;54366;51.980;5.856;2023-05-10T10:16:30;10.48;;;8.95;;
67528;SDS011;54366;51.980;5.856;2023-05-10T10:19:05;12.50;;;9.98;;
67528;SDS011;54366;51.980;5.856;2023-05-10T10:21:32;11.57;;;9.68;;
67528;SDS011;54366;51.980;5.856;2023-05-10T10:24:05;11.15;;;8.80;;
67528;SDS011;54366;51.980;5.856;2023-05-10T10:26:38;9.27;;;8.38;;
67528;SDS011;54366;51.980;5.856;2023-05-10T10:29:23;12.52;;;10.07;;
67528;SDS011;54366;51.980;5.856;2023-05-10T10:32:30;9.88;;;8.20;;
67528;SDS011;54366;51.980;5.856;2023-05-10T10:35:07;11.10;;;9.60;;
67528;SDS011;54366;51.980;5.856;2023-05-10T10:37:45;13.38;;;11.02;;
67528;SDS011;54366;51.980;5.856;2023-05-10T10:40:29;13.32;;;10.07;;
67528;SDS011;54366;51.980;5.856;2023-05-10T10:43:28;12.65;;;10.88;;
67528;SDS011;54366;51.980;5.856;2023-05-10T10:46:15;10.35;;;9.10;;
67528;SDS011;54366;51.980;5.856;2023-05-10T10:49:07;10.05;;;8.98;;
67528;SDS011;54366;51.980;5.856;2023-05-10T10:52:12;12.85;;;10.30;;
67528;SDS011;54366;51.980;5.856;2023-05-10T10:54:59;11.32;;;9.00;;
67528;SDS011;54366;51.980;5.856;2023-05-10T10:57:47;9.68;;;8.52;;
67528;SDS011;54366;51.980;5.856;2023-05-10T11:00:33;10.85;;;8.18;;
67528;SDS011;54366;51.980;5.856;2023-05-10T11:03:12;10.73;;;9.02;;
67528;SDS011;54366;51.980;5.856;2023-05-10T11:05:49;10.95;;;9.60;;
67528;SDS011;54366;51.980;5.856;2023-05-10T11:08:30;11.40;;;9.02;;
67528;SDS011;54366;51.980;5.856;2023-05-10T11:11:05;9.45;;;8.43;;
67528;SDS011;54366;51.980;5.856;2023-05-10T11:13:42;13.63;;;9.88;;
67528;SDS011;54366;51.980;5.856;2023-05-10T11:16:17;10.43;;;8.68;;
67528;SDS011;54366;51.980;5.856;2023-05-10T11:19:14;10.88;;;8.60;;
67528;SDS011;54366;51.980;5.856;2023-05-10T11:21:49;11.10;;;8.48;;
67528;SDS011;54366;51.980;5.856;2023-05-10T11:24:26;9.75;;;8.38;;
67528;SDS011;54366;51.980;5.856;2023-05-10T11:27:00;9.48;;;8.07;;
67528;SDS011;54366;51.980;5.856;2023-05-10T11:29:39;9.48;;;7.35;;
67528;SDS011;54366;51.980;5.856;2023-05-10T11:32:12;9.15;;;7.22;;
67528;SDS011;54366;51.980;5.856;2023-05-10T11:34:46;8.80;;;7.40;;
67528;SDS011;54366;51.980;5.856;2023-05-10T11:37:20;7.72;;;6.72;;
67528;SDS011;54366;51.980;5.856;2023-05-10T11:39:47;7.40;;;6.70;;
67528;SDS011;54366;51.980;5.856;2023-05-10T11:42:19;11.05;;;6.50;;
67528;SDS011;54366;51.980;5.856;2023-05-10T11:45:00;13.32;;;7.32;;
67528;SDS011;54366;51.980;5.856;2023-05-10T11:47:33;9.73;;;7.40;;
67528;SDS011;54366;51.980;5.856;2023-05-10T11:50:01;8.02;;;6.10;;
67528;SDS011;54366;51.980;5.856;2023-05-10T11:52:37;8.60;;;7.38;;
67528;SDS011;54366;51.980;5.856;2023-05-10T11:55:04;7.78;;;6.97;;
67528;SDS011;54366;51.980;5.856;2023-05-10T11:57:37;8.73;;;6.65;;
67528;SDS011;54366;51.980;5.856;2023-05-10T12:00:14;7.70;;;6.90;;
67528;SDS011;54366;51.980;5.856;2023-05-10T12:02:41;7.95;;;7.15;;
67528;SDS011;54366;51.980;5.856;2023-05-10T12:05:14;9.77;;;7.68;;
67528;SDS011;54366;51.980;5.856;2023-05-10T12:07:41;9.13;;;7.97;;
67528;SDS011;54366;51.980;5.856;2023-05-10T12:10:14;8.50;;;7.13;;
67528;SDS011;54366;51.980;5.856;2023-05-10T12:12:42;7.15;;;6.43;;
67528;SDS011;54366;51.980;5.856;2023-05-10T12:15:22;7.60;;;6.70;;
67528;SDS011;54366;51.980;5.856;2023-05-10T12:17:56;7.43;;;6.07;;
67528;SDS011;54366;51.980;5.856;2023-05-10T12:20:23;7.38;;;6.57;;
67528;SDS011;54366;51.980;5.856;2023-05-10T12:22:59;6.43;;;5.82;;
67528;SDS011;54366;51.980;5.856;2023-05-10T12:25:32;7.90;;;5.55;;
67528;SDS011;54366;51.980;5.856;2023-05-10T12:28:07;6.50;;;5.53;;
67528;SDS011;54366;51.980;5.856;2023-05-10T12:30:41;6.05;;;5.07;;
67528;SDS011;54366;51.980;5.856;2023-05-10T12:33:14;6.45;;;5.20;;
67528;SDS011;54366;51.980;5.856;2023-05-10T12:35:50;6.28;;;5.57;;
67528;SDS011;54366;51.980;5.856;2023-05-10T12:38:43;5.03;;;4.63;;
67528;SDS011;54366;51.980;5.856;2023-05-10T12:41:26;5.95;;;5.35;;
67528;SDS011;54366;51.980;5.856;2023-05-10T12:43:58;8.35;;;6.20;;
67528;SDS011;54366;51.980;5.856;2023-05-10T12:46:38;7.13;;;5.75;;
67528;SDS011;54366;51.980;5.856;2023-05-10T12:49:05;5.93;;;5.00;;
67528;SDS011;54366;51.980;5.856;2023-05-10T12:51:38;5.15;;;4.65;;
67528;SDS011;54366;51.980;5.856;2023-05-10T12:54:05;5.30;;;4.80;;
67528;SDS011;54366;51.980;5.856;2023-05-10T12:56:37;5.43;;;4.93;;
67528;SDS011;54366;51.980;5.856;2023-05-10T12:59:10;11.00;;;5.50;;
67528;SDS011;54366;51.980;5.856;2023-05-10T13:01:37;5.25;;;4.30;;
67528;SDS011;54366;51.980;5.856;2023-05-10T13:04:12;5.35;;;4.20;;
67528;SDS011;54366;51.980;5.856;2023-05-10T13:06:45;4.88;;;4.38;;
67528;SDS011;54366;51.980;5.856;2023-05-10T13:09:18;4.90;;;4.47;;
67528;SDS011;54366;51.980;5.856;2023-05-10T13:11:52;5.15;;;4.65;;
67528;SDS011;54366;51.980;5.856;2023-05-10T13:14:19;5.18;;;4.68;;
67528;SDS011;54366;51.980;5.856;2023-05-10T13:16:52;4.40;;;4.00;;
67528;SDS011;54366;51.980;5.856;2023-05-10T13:19:25;5.00;;;4.20;;
67528;SDS011;54366;51.980;5.856;2023-05-10T13:21:52;5.10;;;4.43;;
67528;SDS011;54366;51.980;5.856;2023-05-10T13:24:24;4.53;;;4.13;;
67528;SDS011;54366;51.980;5.856;2023-05-10T13:26:57;5.13;;;4.43;;
67528;SDS011;54366;51.980;5.856;2023-05-10T13:29:30;6.32;;;4.60;;
67528;SDS011;54366;51.980;5.856;2023-05-10T13:31:57;5.10;;;4.60;;
67528;SDS011;54366;51.980;5.856;2023-05-10T13:34:30;4.95;;;4.05;;
67528;SDS011;54366;51.980;5.856;2023-05-10T13:37:03;4.03;;;3.72;;
67528;SDS011;54366;51.980;5.856;2023-05-10T13:39:36;4.90;;;4.43;;
67528;SDS011;54366;51.980;5.856;2023-05-10T13:42:17;6.35;;;5.75;;
67528;SDS011;54366;51.980;5.856;2023-05-10T13:44:50;7.32;;;6.70;;
67528;SDS011;54366;51.980;5.856;2023-05-10T13:47:17;9.82;;;8.05;;
67528;SDS011;54366;51.980;5.856;2023-05-10T13:49:49;8.52;;;7.40;;
67528;SDS011;54366;51.980;5.856;2023-05-10T13:52:22;7.20;;;6.47;;
67528;SDS011;54366;51.980;5.856;2023-05-10T13:54:55;7.82;;;7.07;;
67528;SDS011;54366;51.980;5.856;2023-05-10T13:57:29;7.03;;;6.38;;
67528;SDS011;54366;51.980;5.856;2023-05-10T14:00:02;6.57;;;6.00;;
67528;SDS011;54366;51.980;5.856;2023-05-10T14:02:36;6.80;;;6.20;;
67528;SDS011;54366;51.980;5.856;2023-05-10T14:05:09;5.73;;;5.20;;
67528;SDS011;54366;51.980;5.856;2023-05-10T14:07:36;7.05;;;6.40;;
67528;SDS011;54366;51.980;5.856;2023-05-10T14:10:08;7.15;;;6.57;;
67528;SDS011;54366;51.980;5.856;2023-05-10T14:12:35;6.40;;;5.90;;
67528;SDS011;54366;51.980;5.856;2023-05-10T14:15:08;6.93;;;6.33;;
67528;SDS011;54366;51.980;5.856;2023-05-10T14:17:43;9.32;;;8.45;;
67528;SDS011;54366;51.980;5.856;2023-05-10T14:20:16;7.10;;;6.55;;
67528;SDS011;54366;51.980;5.856;2023-05-10T14:22:49;7.00;;;6.43;;
67528;SDS011;54366;51.980;5.856;2023-05-10T14:25:22;7.97;;;6.10;;
67528;SDS011;54366;51.980;5.856;2023-05-10T14:27:55;6.57;;;6.07;;
67528;SDS011;54366;51.980;5.856;2023-05-10T14:30:24;5.68;;;5.28;;
67528;SDS011;54366;51.980;5.856;2023-05-10T14:32:58;5.85;;;5.35;;
67528;SDS011;54366;51.980;5.856;2023-05-10T14:35:32;5.45;;;5.05;;
67528;SDS011;54366;51.980;5.856;2023-05-10T14:38:05;4.00;;;3.70;;
67528;SDS011;54366;51.980;5.856;2023-05-10T14:40:38;3.45;;;3.15;;
67528;SDS011;54366;51.980;5.856;2023-05-10T14:43:11;3.20;;;2.90;;
67528;SDS011;54366;51.980;5.856;2023-05-10T14:45:51;4.30;;;3.90;;
67528;SDS011;54366;51.980;5.856;2023-05-10T14:48:24;3.55;;;3.25;;
67528;SDS011;54366;51.980;5.856;2023-05-10T14:50:57;3.35;;;3.05;;
67528;SDS011;54366;51.980;5.856;2023-05-10T14:53:24;3.65;;;3.35;;
67528;SDS011;54366;51.980;5.856;2023-05-10T14:55:56;3.53;;;3.10;;
67528;SDS011;54366;51.980;5.856;2023-05-10T14:58:23;4.20;;;3.85;;
67528;SDS011;54366;51.980;5.856;2023-05-10T15:00:55;3.50;;;3.20;;
67528;SDS011;54366;51.980;5.856;2023-05-10T15:03:28;3.38;;;3.08;;
67528;SDS011;54366;51.980;5.856;2023-05-10T15:06:01;2.50;;;2.30;;
67528;SDS011;54366;51.980;5.856;2023-05-10T15:08:35;1.85;;;1.73;;
67528;SDS011;54366;51.980;5.856;2023-05-10T15:11:08;1.98;;;1.70;;
67528;SDS011;54366;51.980;5.856;2023-05-10T15:13:41;1.85;;;1.67;;
67528;SDS011;54366;51.980;5.856;2023-05-10T15:16:14;1.52;;;1.30;;